Time;durP1;ratioP1;P1;durP2;ratioP2;P2;SDS_P1;SDS_P2;PMS_P1;PMS_P2;Temp;Humidity;BMP_temperature;BMP_pressure;BME280_temperature;BME280_humidity;BME280_pressure;Samples;Min_cycle;Max_cycle;Signal;HPM_P1;HPM_P2
2021/06/10 00:00:57;;;;;;;12.43;11.27;;;21.70;65.80;;;;;;5032970;28;20201;-52
2021/06/10 00:03:23;;;;;;;13.23;12.03;;;21.80;65.50;;;;;;5033794;28;20427;-53
2021/06/10 00:05:49;;;;;;;11.90;10.80;;;21.90;65.20;;;;;;5033684;28;20232;-53
2021/06/10 00:08:14;;;;;;;12.43;11.33;;;22.00;65.00;;;;;;5033663;28;20839;-53
2021/06/10 00:10:41;;;;;;;13.13;12.00;;;22.00;64.80;;;;;;5033156;28;20260;-50
2021/06/10 00:13:07;;;;;;;13.03;11.57;;;22.00;64.50;;;;;;5034035;28;20197;-54
2021/06/10 00:15:35;;;;;;;12.70;11.40;;;22.00;64.60;;;;;;5033540;28;20434;-54
2021/06/10 00:18:02;;;;;;;16.63;12.67;;;21.90;65.00;;;;;;5033843;28;20256;-52
2021/06/10 00:20:29;;;;;;;14.90;13.17;;;21.90;65.10;;;;;;5021961;28;20429;-50
2021/06/10 00:22:55;;;;;;;15.03;13.63;;;21.90;65.00;;;;;;5013949;28;20429;-54
2021/06/10 00:25:27;;;;;;;13.30;12.10;;;22.00;65.30;;;;;;5013400;28;20493;-50
2021/06/10 00:27:52;;;;;;;14.80;13.40;;;22.00;65.30;;;;;;5011942;28;20445;-54
2021/06/10 00:30:19;;;;;;;21.67;13.10;;;22.00;65.20;;;;;;5013490;28;20473;-54
2021/06/10 00:32:46;;;;;;;16.73;12.80;;;22.00;65.20;;;;;;5013679;28;20356;-50
2021/06/10 00:35:13;;;;;;;14.57;12.30;;;21.90;65.60;;;;;;5013364;28;20433;-54
2021/06/10 00:37:39;;;;;;;14.00;12.53;;;21.80;66.00;;;;;;5012315;28;20912;-54
2021/06/10 00:40:06;;;;;;;22.63;13.53;;;21.60;66.60;;;;;;5012772;28;20432;-54
2021/06/10 00:42:32;;;;;;;14.30;12.43;;;21.70;66.80;;;;;;5024250;28;20437;-50
2021/06/10 00:44:58;;;;;;;13.53;12.13;;;21.70;66.60;;;;;;5013150;28;20484;-54
2021/06/10 00:47:24;;;;;;;15.57;14.17;;;21.70;66.60;;;;;;5013283;28;20256;-54
2021/06/10 00:49:49;;;;;;;13.50;12.30;;;21.80;66.50;;;;;;5011909;28;20456;-53
2021/06/10 00:52:15;;;;;;;14.10;12.47;;;21.70;66.20;;;;;;5022079;28;20614;-54
2021/06/10 00:54:41;;;;;;;17.30;12.20;;;21.70;66.20;;;;;;5031160;28;20198;-54
2021/06/10 00:57:07;;;;;;;12.83;11.63;;;21.60;66.40;;;;;;5032643;28;20197;-54
2021/06/10 00:59:33;;;;;;;13.37;12.17;;;21.40;67.00;;;;;;5032809;28;20197;-54
2021/06/10 01:01:59;;;;;;;12.07;10.60;;;21.50;67.10;;;;;;5033261;28;20421;-53
2021/06/10 01:04:26;;;;;;;12.43;11.37;;;21.50;66.80;;;;;;5032509;28;20311;-54
2021/06/10 01:07:12;;;;;;;11.80;10.40;;;21.30;67.00;;;;;;5032613;28;20428;-54
2021/06/10 01:09:49;;;;;;;11.40;10.40;;;21.40;67.10;;;;;;5032229;28;20893;-53
2021/06/10 01:12:31;;;;;;;11.13;10.13;;;21.40;67.00;;;;;;5032985;28;20571;-54
2021/06/10 01:15:06;;;;;;;11.97;10.87;;;21.40;66.40;;;;;;5032232;28;20464;-53
2021/06/10 01:17:35;;;;;;;12.17;11.07;;;21.50;66.10;;;;;;5032272;28;20474;-53
2021/06/10 01:20:03;;;;;;;11.97;10.87;;;21.50;65.90;;;;;;5025157;28;20461;-52
2021/06/10 01:22:48;;;;;;;11.03;10.17;;;21.40;66.40;;;;;;5011766;28;20451;-51
2021/06/10 01:25:47;;;;;;;12.17;11.17;;;21.40;66.30;;;;;;5012084;28;20496;-54
2021/06/10 01:28:15;;;;;;;12.20;11.20;;;21.40;66.00;;;;;;5024543;28;20962;-54
2021/06/10 01:31:03;;;;;;;10.73;9.73;;;21.50;65.90;;;;;;5012298;28;20441;-53
2021/06/10 01:33:48;;;;;;;10.77;9.77;;;21.60;65.50;;;;;;5012617;28;20468;-53
2021/06/10 01:36:18;;;;;;;11.47;10.37;;;21.60;65.20;;;;;;5012468;28;20476;-53
2021/06/10 01:38:46;;;;;;;10.77;9.87;;;21.50;65.20;;;;;;5011689;28;20433;-53
2021/06/10 01:41:13;;;;;;;10.90;10.00;;;21.50;65.10;;;;;;5018571;28;20420;-50
2021/06/10 01:43:41;;;;;;;11.63;10.63;;;21.60;65.10;;;;;;5017482;28;20523;-52
2021/06/10 01:46:08;;;;;;;11.37;10.40;;;21.60;65.00;;;;;;5012423;28;20459;-54
2021/06/10 01:48:34;;;;;;;11.30;10.33;;;21.60;64.80;;;;;;5010073;28;20432;-53
2021/06/10 01:51:03;;;;;;;12.17;11.17;;;21.70;64.90;;;;;;5012090;28;20429;-52
2021/06/10 01:53:31;;;;;;;11.13;10.03;;;21.70;65.00;;;;;;5012357;28;20955;-53
2021/06/10 01:55:59;;;;;;;11.00;10.00;;;21.60;64.90;;;;;;5012007;28;20520;-52
2021/06/10 01:58:26;;;;;;;12.10;11.00;;;21.50;65.10;;;;;;5011898;28;20464;-51
2021/06/10 02:00:53;;;;;;;11.70;10.50;;;21.50;65.40;;;;;;5011765;28;20453;-51
2021/06/10 02:03:21;;;;;;;12.77;11.67;;;21.50;65.30;;;;;;5012279;28;20421;-51
2021/06/10 02:05:47;;;;;;;25.07;12.23;;;21.50;65.20;;;;;;5011441;28;20815;-54
2021/06/10 02:08:16;;;;;;;11.87;10.87;;;21.50;65.10;;;;;;5011940;28;20436;-50
2021/06/10 02:10:50;;;;;;;13.37;12.17;;;21.40;65.30;;;;;;5011472;28;20429;-50
2021/06/10 02:13:18;;;;;;;15.20;11.00;;;21.40;65.50;;;;;;5029308;28;20428;-52
2021/06/10 02:15:45;;;;;;;40.43;10.93;;;21.40;65.60;;;;;;5031125;28;20493;-50
2021/06/10 02:18:13;;;;;;;15.10;10.23;;;21.20;65.60;;;;;;5031215;28;20839;-54
2021/06/10 02:20:39;;;;;;;11.97;10.97;;;21.20;66.00;;;;;;5019271;28;20855;-53
2021/06/10 02:23:05;;;;;;;22.27;10.73;;;21.20;65.90;;;;;;5011759;28;20432;-54
2021/06/10 02:25:31;;;;;;;11.10;10.20;;;21.20;65.80;;;;;;5011363;28;20236;-50
2021/06/10 02:27:57;;;;;;;16.30;10.13;;;21.20;65.60;;;;;;5011634;28;20425;-53
2021/06/10 02:30:23;;;;;;;13.73;11.60;;;21.20;65.60;;;;;;5011285;28;20425;-54
2021/06/10 02:32:48;;;;;;;20.73;10.47;;;21.20;65.60;;;;;;5011886;28;20202;-52
2021/06/10 02:35:16;;;;;;;27.07;11.07;;;21.10;65.80;;;;;;5011294;28;20623;-53
2021/06/10 02:37:46;;;;;;;12.00;11.00;;;21.00;66.00;;;;;;5011626;28;20280;-54
2021/06/10 02:40:18;;;;;;;23.83;10.30;;;20.80;67.10;;;;;;5009448;28;20420;-51
2021/06/10 02:42:45;;;;;;;17.20;10.13;;;20.60;68.20;;;;;;5023493;28;20429;-53
2021/06/10 02:45:11;;;;;;;10.93;9.23;;;20.40;69.10;;;;;;5011010;28;20488;-50
2021/06/10 02:47:40;;;;;;;16.63;9.20;;;20.30;69.20;;;;;;5011299;28;20460;-53
2021/06/10 02:50:10;;;;;;;29.50;9.60;;;19.90;70.90;;;;;;5011394;28;20563;-53
2021/06/10 02:52:42;;;;;;;30.30;10.20;;;19.80;72.20;;;;;;5024354;28;20420;-52
2021/06/10 02:55:08;;;;;;;23.73;9.93;;;19.80;71.50;;;;;;5030777;28;20816;-53
2021/06/10 02:57:35;;;;;;;41.10;10.63;;;19.70;72.20;;;;;;5029748;28;20478;-51
2021/06/10 03:00:03;;;;;;;22.47;9.33;;;19.60;72.40;;;;;;5030695;28;20460;-52
2021/06/10 03:02:29;;;;;;;24.63;10.63;;;19.60;72.40;;;;;;5032228;28;20514;-50
2021/06/10 03:04:57;;;;;;;57.67;11.93;;;19.50;73.30;;;;;;5034739;28;20484;-50
2021/06/10 03:07:22;;;;;;;11.17;10.27;;;19.50;72.90;;;;;;5033433;28;20436;-51
2021/06/10 03:09:49;;;;;;;10.30;9.30;;;19.10;74.30;;;;;;5034653;28;20849;-51
2021/06/10 03:12:17;;;;;;;16.33;10.07;;;19.30;74.50;;;;;;5035371;28;20237;-51
2021/06/10 03:14:43;;;;;;;11.17;10.20;;;19.20;74.50;;;;;;5034633;28;20428;-54
2021/06/10 03:17:11;;;;;;;23.83;10.83;;;19.30;74.40;;;;;;5034878;28;20422;-53
2021/06/10 03:19:37;;;;;;;29.47;10.80;;;19.30;73.80;;;;;;5030462;28;20912;-52
2021/06/10 03:22:03;;;;;;;12.07;10.97;;;19.30;74.20;;;;;;5015217;28;20425;-53
2021/06/10 03:24:29;;;;;;;11.43;10.23;;;19.20;74.50;;;;;;5014761;28;20567;-53
2021/06/10 03:26:56;;;;;;;11.93;10.37;;;19.50;73.90;;;;;;5014876;28;20432;-51
2021/06/10 03:29:22;;;;;;;11.70;10.70;;;19.30;73.40;;;;;;5014531;28;20796;-53
2021/06/10 03:31:48;;;;;;;11.07;9.97;;;19.20;73.70;;;;;;5014922;28;20424;-53
2021/06/10 03:34:15;;;;;;;17.53;10.10;;;19.30;73.90;;;;;;5012767;28;20201;-51
2021/06/10 03:36:41;;;;;;;10.60;9.60;;;19.30;73.20;;;;;;5014526;28;20435;-53
2021/06/10 03:39:07;;;;;;;13.10;8.80;;;19.20;73.30;;;;;;5014230;28;20436;-50
2021/06/10 03:41:34;;;;;;;10.83;9.73;;;18.80;74.60;;;;;;5023298;28;20469;-54
2021/06/10 03:44:01;;;;;;;10.20;9.30;;;18.90;74.90;;;;;;5016682;28;20483;-54
2021/06/10 03:46:28;;;;;;;9.53;8.73;;;18.80;75.00;;;;;;5014486;28;20425;-54
2021/06/10 03:48:53;;;;;;;11.83;8.80;;;19.00;74.70;;;;;;5014120;28;20742;-53
2021/06/10 03:51:20;;;;;;;10.90;9.80;;;19.30;73.90;;;;;;5016993;28;20443;-54
2021/06/10 03:53:47;;;;;;;10.90;9.80;;;19.40;72.70;;;;;;5033792;28;20282;-54
2021/06/10 03:56:14;;;;;;;14.73;8.83;;;19.50;72.40;;;;;;5034429;28;20427;-54
2021/06/10 03:58:39;;;;;;;17.47;9.10;;;19.30;72.40;;;;;;5033186;28;20963;-54
2021/06/10 04:01:05;;;;;;;10.87;9.77;;;19.30;72.90;;;;;;5032696;28;20517;-54
2021/06/10 04:03:31;;;;;;;9.43;8.67;;;19.40;72.50;;;;;;5033763;28;20669;-54
2021/06/10 04:05:57;;;;;;;9.70;8.87;;;19.50;72.20;;;;;;5034185;28;20324;-53
2021/06/10 04:08:23;;;;;;;10.50;9.60;;;19.70;71.60;;;;;;5033733;28;20197;-54
2021/06/10 04:10:48;;;;;;;9.53;8.73;;;19.80;71.20;;;;;;5033174;28;20990;-54
2021/06/10 04:13:14;;;;;;;9.27;8.50;;;19.80;70.70;;;;;;5034054;28;20197;-53
2021/06/10 04:15:40;;;;;;;9.60;8.80;;;19.90;70.40;;;;;;5032707;28;20200;-51
2021/06/10 04:18:06;;;;;;;9.47;8.77;;;19.90;70.20;;;;;;5033627;28;20439;-53
2021/06/10 04:20:31;;;;;;;8.30;7.60;;;19.80;70.80;;;;;;5022267;28;20251;-54
2021/06/10 04:22:57;;;;;;;9.13;8.33;;;19.70;70.90;;;;;;5014116;28;20273;-53
2021/06/10 04:25:23;;;;;;;9.87;8.97;;;19.70;71.40;;;;;;5013476;28;20696;-50
2021/06/10 04:27:48;;;;;;;10.53;8.60;;;19.70;71.40;;;;;;5011874;28;20193;-50
2021/06/10 04:30:16;;;;;;;10.67;8.80;;;19.80;71.00;;;;;;5013321;28;20197;-53
2021/06/10 04:32:44;;;;;;;17.33;9.20;;;19.90;70.80;;;;;;5014014;28;20190;-51
2021/06/10 04:35:11;;;;;;;26.60;9.87;;;20.00;70.40;;;;;;5013452;28;20489;-53
2021/06/10 04:37:36;;;;;;;9.93;8.90;;;20.10;70.10;;;;;;5013360;28;20421;-54
2021/06/10 04:40:03;;;;;;;25.40;10.17;;;20.10;70.00;;;;;;5013732;28;20520;-52
2021/06/10 04:42:30;;;;;;;9.20;8.50;;;20.20;70.00;;;;;;5024977;28;20198;-50
2021/06/10 04:44:55;;;;;;;10.40;9.40;;;20.10;70.00;;;;;;5013212;28;20516;-54
2021/06/10 04:47:21;;;;;;;9.80;8.87;;;20.20;70.30;;;;;;5013149;28;20473;-52
2021/06/10 04:49:46;;;;;;;11.77;10.77;;;20.40;70.10;;;;;;5011750;28;20745;-54
2021/06/10 04:52:12;;;;;;;10.03;9.13;;;20.50;69.60;;;;;;5021475;28;20197;-53
2021/06/10 04:54:38;;;;;;;12.03;10.83;;;20.50;69.40;;;;;;5032473;28;20196;-50
2021/06/10 04:57:04;;;;;;;9.90;9.10;;;20.60;69.40;;;;;;5032951;28;20228;-53
2021/06/10 04:59:30;;;;;;;11.50;10.50;;;20.70;69.20;;;;;;5032614;28;20200;-52
2021/06/10 05:01:56;;;;;;;11.13;10.23;;;20.60;69.10;;;;;;5033070;28;20915;-54
2021/06/10 05:04:22;;;;;;;10.63;9.83;;;20.50;70.00;;;;;;5032474;28;20853;-51
2021/06/10 05:06:50;;;;;;;12.30;11.20;;;20.20;71.50;;;;;;5032927;28;20424;-52
2021/06/10 05:09:16;;;;;;;10.00;9.20;;;20.40;71.20;;;;;;5032548;28;20423;-51
2021/06/10 05:11:42;;;;;;;12.27;11.17;;;20.70;70.70;;;;;;5032610;28;20463;-52
2021/06/10 05:14:07;;;;;;;12.03;11.03;;;20.70;70.00;;;;;;5032696;28;20193;-54
2021/06/10 05:16:33;;;;;;;12.07;11.07;;;20.80;70.20;;;;;;5032444;28;20200;-51
2021/06/10 05:18:59;;;;;;;12.37;11.27;;;20.90;69.60;;;;;;5030559;28;20268;-50
2021/06/10 05:21:24;;;;;;;12.33;11.23;;;20.70;70.70;;;;;;5014316;28;20194;-50
2021/06/10 05:23:50;;;;;;;11.13;10.03;;;20.90;70.80;;;;;;5012447;28;20267;-51
2021/06/10 05:26:16;;;;;;;11.80;10.80;;;20.90;70.30;;;;;;5011493;28;20190;-54
2021/06/10 05:28:41;;;;;;;12.17;11.13;;;21.10;70.10;;;;;;5012062;28;20432;-53
2021/06/10 05:31:08;;;;;;;11.60;10.57;;;21.30;69.50;;;;;;5012969;28;20197;-53
2021/06/10 05:33:37;;;;;;;12.07;10.97;;;21.40;69.00;;;;;;5012360;28;20285;-54
2021/06/10 05:36:04;;;;;;;11.93;11.03;;;21.60;68.70;;;;;;5012664;28;20429;-54
2021/06/10 05:38:30;;;;;;;12.30;11.20;;;21.70;68.30;;;;;;5012267;28;20899;-50
2021/06/10 05:40:56;;;;;;;12.00;10.97;;;21.70;67.70;;;;;;5015789;28;20459;-53
2021/06/10 05:43:23;;;;;;;13.13;12.03;;;21.80;67.60;;;;;;5020695;28;20627;-54
2021/06/10 05:45:50;;;;;;;14.63;12.80;;;21.90;67.40;;;;;;5010451;28;20198;-51
2021/06/10 05:48:17;;;;;;;12.80;11.70;;;21.80;66.80;;;;;;5012154;28;20483;-54
2021/06/10 05:50:43;;;;;;;13.80;12.60;;;21.90;66.70;;;;;;5012059;28;20452;-50
2021/06/10 05:53:09;;;;;;;12.33;11.33;;;21.90;66.50;;;;;;5029706;28;20767;-54
2021/06/10 05:55:34;;;;;;;13.20;12.03;;;21.90;66.80;;;;;;5031492;28;20193;-53
2021/06/10 05:58:00;;;;;;;13.30;12.10;;;21.70;67.10;;;;;;5031813;28;20189;-50
2021/06/10 06:00:25;;;;;;;13.53;12.23;;;21.50;68.20;;;;;;5031527;28;20185;-51
2021/06/10 06:02:51;;;;;;;14.43;13.23;;;21.20;69.70;;;;;;5032212;28;20195;-52
2021/06/10 06:05:17;;;;;;;14.33;13.10;;;21.20;69.70;;;;;;5031443;28;20225;-51
2021/06/10 06:07:42;;;;;;;13.20;12.00;;;21.50;69.80;;;;;;5031395;28;20652;-51
2021/06/10 06:10:08;;;;;;;14.37;13.00;;;21.80;69.10;;;;;;5031311;28;20243;-53
2021/06/10 06:12:34;;;;;;;13.90;12.60;;;22.00;68.50;;;;;;5030287;28;20237;-51
2021/06/10 06:15:00;;;;;;;14.27;12.97;;;21.80;68.90;;;;;;5031201;28;20447;-50
2021/06/10 06:17:25;;;;;;;14.53;13.23;;;22.20;69.00;;;;;;5031513;28;20420;-50
2021/06/10 06:19:51;;;;;;;13.77;12.43;;;22.30;68.10;;;;;;5024989;28;20185;-54
2021/06/10 06:22:17;;;;;;;13.13;12.00;;;22.50;67.00;;;;;;5012444;28;20585;-52
2021/06/10 06:24:42;;;;;;;12.03;11.13;;;22.70;65.90;;;;;;5011326;28;20251;-51
2021/06/10 06:27:08;;;;;;;12.50;11.30;;;22.80;65.90;;;;;;5011621;28;20209;-52
2021/06/10 06:29:35;;;;;;;13.00;11.97;;;23.00;65.00;;;;;;5011521;28;20243;-52
2021/06/10 06:32:02;;;;;;;12.90;11.80;;;23.20;63.30;;;;;;5012238;28;20570;-51
2021/06/10 06:34:28;;;;;;;12.80;11.50;;;23.30;62.50;;;;;;5011605;28;20444;-52
2021/06/10 06:36:53;;;;;;;12.47;11.37;;;23.50;62.50;;;;;;5011376;28;21235;-51
2021/06/10 06:39:19;;;;;;;12.23;11.07;;;23.60;61.50;;;;;;5009508;28;20202;-53
2021/06/10 06:41:45;;;;;;;12.27;11.27;;;23.80;61.30;;;;;;5021781;28;20201;-54
2021/06/10 06:44:11;;;;;;;13.13;12.03;;;24.00;60.80;;;;;;5011187;28;20225;-54
2021/06/10 06:46:36;;;;;;;11.40;10.50;;;24.00;61.60;;;;;;5011515;28;20321;-53
2021/06/10 06:49:02;;;;;;;12.33;10.00;;;24.00;60.80;;;;;;5011461;28;20194;-53
2021/06/10 06:51:28;;;;;;;10.73;9.83;;;24.10;61.40;;;;;;5015366;28;20204;-52
2021/06/10 06:53:54;;;;;;;10.73;9.83;;;24.30;60.70;;;;;;5030650;28;20440;-54
2021/06/10 06:56:22;;;;;;;11.23;10.37;;;24.50;60.30;;;;;;5031327;28;20940;-53
2021/06/10 06:58:47;;;;;;;10.30;9.50;;;24.70;59.80;;;;;;5031077;28;20424;-54
2021/06/10 07:01:13;;;;;;;11.67;10.60;;;24.90;59.40;;;;;;5031334;28;20447;-55
2021/06/10 07:03:39;;;;;;;11.80;10.67;;;25.00;59.50;;;;;;5030461;28;20189;-53
2021/06/10 07:06:05;;;;;;;12.40;11.30;;;25.20;59.30;;;;;;5029330;28;20192;-55
2021/06/10 07:08:31;;;;;;;11.73;10.57;;;25.30;59.00;;;;;;5031009;28;20190;-54
2021/06/10 07:10:58;;;;;;;10.63;9.73;;;25.50;58.80;;;;;;5031211;28;20482;-53
2021/06/10 07:13:25;;;;;;;11.10;10.20;;;25.50;58.40;;;;;;5031230;28;20486;-54
2021/06/10 07:15:51;;;;;;;11.97;10.97;;;25.70;58.10;;;;;;5030846;28;20809;-54
2021/06/10 07:18:17;;;;;;;10.97;10.07;;;25.60;57.10;;;;;;5030747;28;20929;-55
2021/06/10 07:20:43;;;;;;;11.10;10.20;;;25.70;57.20;;;;;;5017826;28;20421;-54
2021/06/10 07:23:09;;;;;;;10.43;9.53;;;25.80;56.80;;;;;;5011555;28;20232;-54
2021/06/10 07:25:36;;;;;;;11.60;10.57;;;25.70;57.30;;;;;;5010808;28;20520;-53
2021/06/10 07:28:02;;;;;;;11.40;10.43;;;25.90;58.00;;;;;;5011392;28;20221;-54
2021/06/10 07:30:28;;;;;;;10.63;9.70;;;26.10;56.70;;;;;;5011153;28;20417;-51
2021/06/10 07:32:54;;;;;;;10.70;9.90;;;26.20;54.80;;;;;;5009840;28;20862;-54
2021/06/10 07:35:21;;;;;;;10.00;9.20;;;26.30;54.90;;;;;;5011098;28;20452;-53
2021/06/10 07:37:53;;;;;;;10.87;9.67;;;26.50;55.30;;;;;;5010795;28;20202;-52
2021/06/10 07:40:23;;;;;;;10.10;9.30;;;26.70;54.90;;;;;;5010915;28;20794;-54
2021/06/10 07:42:48;;;;;;;10.20;9.30;;;26.90;54.00;;;;;;5022164;28;20433;-54
2021/06/10 07:45:15;;;;;;;9.53;8.73;;;26.90;53.40;;;;;;5010490;28;20922;-54
2021/06/10 07:47:40;;;;;;;11.27;10.33;;;27.00;52.90;;;;;;5010927;28;20296;-55
2021/06/10 07:50:08;;;;;;;10.30;9.40;;;27.10;52.60;;;;;;5012273;28;20512;-54
2021/06/10 07:52:34;;;;;;;9.30;8.60;;;27.30;52.70;;;;;;5027328;28;20198;-53
2021/06/10 07:55:00;;;;;;;9.97;9.17;;;27.40;53.20;;;;;;5033709;28;20518;-55
2021/06/10 07:57:25;;;;;;;9.57;8.57;;;27.60;52.30;;;;;;5033042;28;20416;-54
2021/06/10 07:59:51;;;;;;;9.20;8.30;;;27.80;51.80;;;;;;5033465;28;20523;-51
2021/06/10 08:02:17;;;;;;;11.30;9.77;;;27.90;51.90;;;;;;5034335;28;20272;-52
2021/06/10 08:04:42;;;;;;;8.67;8.00;;;27.90;51.80;;;;;;5033523;28;20640;-53
2021/06/10 08:07:11;;;;;;;9.63;8.83;;;28.00;51.30;;;;;;5033889;28;20189;-54
2021/06/10 08:09:37;;;;;;;9.93;9.13;;;28.10;50.50;;;;;;5033640;28;20561;-54
2021/06/10 08:12:03;;;;;;;8.07;7.37;;;27.80;50.00;;;;;;5034328;28;20498;-51
2021/06/10 08:14:29;;;;;;;9.30;8.40;;;27.80;50.60;;;;;;5033801;28;20193;-51
2021/06/10 08:16:55;;;;;;;11.60;10.50;;;28.00;49.90;;;;;;5033397;28;20436;-51
2021/06/10 08:19:20;;;;;;;10.80;9.87;;;28.20;50.00;;;;;;5031394;28;20454;-53
2021/06/10 08:21:46;;;;;;;9.80;8.90;;;28.40;49.10;;;;;;5014205;28;20216;-51
2021/06/10 08:24:14;;;;;;;11.43;10.33;;;28.60;48.30;;;;;;5011845;28;20233;-54
2021/06/10 08:26:41;;;;;;;10.33;9.53;;;28.80;48.30;;;;;;5013579;28;20549;-52
2021/06/10 08:29:07;;;;;;;8.93;8.20;;;28.90;47.80;;;;;;5013285;28;20440;-54
2021/06/10 08:31:32;;;;;;;9.37;8.67;;;29.00;48.20;;;;;;5014207;28;20836;-51
2021/06/10 08:33:58;;;;;;;9.80;9.00;;;29.00;47.30;;;;;;5013065;28;20198;-51
2021/06/10 08:36:23;;;;;;;10.23;9.43;;;29.20;48.10;;;;;;5013498;28;20281;-54
2021/06/10 08:38:50;;;;;;;10.60;9.70;;;29.40;48.20;;;;;;5013296;28;20201;-53
2021/06/10 08:41:16;;;;;;;9.53;8.83;;;29.60;47.30;;;;;;5019406;28;20189;-52
2021/06/10 08:43:42;;;;;;;10.00;9.30;;;29.70;47.50;;;;;;5017885;28;20876;-53
2021/06/10 08:46:11;;;;;;;11.63;10.70;;;29.90;46.50;;;;;;5013310;28;20709;-53
2021/06/10 08:48:39;;;;;;;10.40;9.60;;;30.00;46.20;;;;;;5012953;28;20433;-53
2021/06/10 08:51:07;;;;;;;10.30;9.17;;;30.00;46.70;;;;;;5012134;28;20433;-52
2021/06/10 08:53:34;;;;;;;11.33;10.27;;;30.20;46.80;;;;;;5032915;28;20431;-52
2021/06/10 08:56:00;;;;;;;10.50;9.63;;;30.30;45.80;;;;;;5033099;28;20478;-52
2021/06/10 08:58:28;;;;;;;10.20;9.27;;;30.40;46.90;;;;;;5033283;28;20774;-51
2021/06/10 09:00:55;;;;;;;9.00;8.20;;;30.50;47.50;;;;;;5032421;28;20467;-51
2021/06/10 09:03:22;;;;;;;9.93;9.10;;;30.50;47.60;;;;;;5032877;28;20434;-52
2021/06/10 09:06:00;;;;;;;10.67;9.87;;;30.70;47.20;;;;;;5032136;28;20541;-53
2021/06/10 09:08:26;;;;;;;10.10;9.20;;;30.90;45.60;;;;;;5033007;28;20480;-50
2021/06/10 09:11:02;;;;;;;9.57;8.87;;;31.10;45.80;;;;;;5032436;28;20876;-51
2021/06/10 09:13:37;;;;;;;10.07;9.30;;;31.20;46.30;;;;;;5032808;28;20188;-52
2021/06/10 09:16:16;;;;;;;10.07;9.13;;;31.20;44.60;;;;;;5032659;28;20432;-53
2021/06/10 09:18:49;;;;;;;10.20;9.40;;;31.30;45.00;;;;;;5030488;28;20455;-52
2021/06/10 09:21:31;;;;;;;11.80;10.90;;;31.50;44.90;;;;;;5015173;28;20759;-52
2021/06/10 09:24:14;;;;;;;11.30;10.50;;;31.60;44.10;;;;;;5012296;28;21050;-52
2021/06/10 09:26:39;;;;;;;11.57;10.57;;;31.60;43.60;;;;;;5020703;28;20428;-52
2021/06/10 09:29:05;;;;;;;12.10;11.10;;;31.70;43.60;;;;;;5032080;28;20770;-52
2021/06/10 09:31:33;;;;;;;9.60;8.70;;;31.70;43.00;;;;;;5032852;28;20203;-52
2021/06/10 09:34:05;;;;;;;8.80;8.10;;;31.80;44.40;;;;;;5031912;28;20464;-51
2021/06/10 09:36:38;;;;;;;10.00;9.30;;;31.90;44.80;;;;;;5032629;28;20515;-52
2021/06/10 09:39:17;;;;;;;11.50;10.67;;;32.20;43.80;;;;;;5031952;28;20514;-51
2021/06/10 09:42:09;;;;;;;10.70;9.70;;;32.30;43.20;;;;;;5032047;28;20443;-52
2021/06/10 09:44:48;;;;;;;12.07;11.07;;;32.50;43.50;;;;;;5010287;28;20472;-51
2021/06/10 09:47:15;;;;;;;11.83;10.93;;;32.70;41.50;;;;;;5012110;28;20425;-52
2021/06/10 09:49:40;;;;;;;10.37;9.57;;;32.70;41.90;;;;;;5012180;28;20428;-52
2021/06/10 09:52:06;;;;;;;10.80;10.00;;;32.80;43.00;;;;;;5020822;28;20421;-52
2021/06/10 09:54:50;;;;;;;9.80;8.97;;;33.00;42.40;;;;;;5031829;28;20189;-52
2021/06/10 09:57:17;;;;;;;11.87;10.97;;;33.20;41.60;;;;;;5031821;28;20520;-52
2021/06/10 09:59:48;;;;;;;10.83;9.93;;;33.20;40.30;;;;;;5031492;28;20427;-53
2021/06/10 10:02:17;;;;;;;10.93;9.93;;;33.30;40.30;;;;;;5032077;28;20531;-53
2021/06/10 10:05:07;;;;;;;10.57;9.67;;;33.30;41.80;;;;;;5031250;28;20878;-52
2021/06/10 10:07:35;;;;;;;12.10;11.10;;;33.30;41.90;;;;;;5031662;28;20451;-54
2021/06/10 10:10:03;;;;;;;11.97;10.90;;;33.40;41.70;;;;;;5029792;28;20428;-52
2021/06/10 10:12:31;;;;;;;14.70;11.10;;;33.60;41.20;;;;;;5031623;28;20495;-53
2021/06/10 10:14:58;;;;;;;10.87;10.00;;;33.90;39.50;;;;;;5031514;28;20436;-53
2021/06/10 10:17:26;;;;;;;12.03;11.03;;;34.00;41.00;;;;;;5031486;28;20934;-53
2021/06/10 10:19:52;;;;;;;12.40;11.50;;;34.00;39.80;;;;;;5025224;28;20441;-53
2021/06/10 10:22:18;;;;;;;12.27;11.27;;;34.10;39.00;;;;;;5011938;28;20428;-53
2021/06/10 10:24:44;;;;;;;10.60;9.60;;;34.20;38.70;;;;;;5011392;28;20984;-53
2021/06/10 10:27:12;;;;;;;11.23;10.33;;;34.20;39.10;;;;;;5011598;28;20198;-52
2021/06/10 10:29:40;;;;;;;13.10;12.00;;;34.20;38.70;;;;;;5011037;28;20197;-52
2021/06/10 10:32:08;;;;;;;10.73;9.93;;;34.30;39.10;;;;;;5012203;28;20428;-53
2021/06/10 10:34:34;;;;;;;12.73;11.63;;;34.50;39.50;;;;;;5011521;28;20465;-52
2021/06/10 10:37:31;;;;;;;11.53;10.53;;;34.50;38.40;;;;;;5009851;28;20482;-53
2021/06/10 10:39:57;;;;;;;12.00;11.00;;;34.50;39.00;;;;;;5011072;28;20535;-53
2021/06/10 10:42:37;;;;;;;12.10;11.00;;;34.40;38.10;;;;;;5022080;28;21064;-54
2021/06/10 10:45:25;;;;;;;14.90;13.80;;;34.50;38.40;;;;;;5011073;28;20236;-53
2021/06/10 10:48:00;;;;;;;16.10;14.77;;;34.70;37.30;;;;;;5021654;28;20429;-54
2021/06/10 10:50:38;;;;;;;14.10;13.10;;;34.50;36.20;;;;;;5011217;28;20442;-53
2021/06/10 10:53:26;;;;;;;13.27;12.27;;;34.40;36.00;;;;;;5028189;28;20424;-52
2021/06/10 10:56:07;;;;;;;12.27;11.37;;;34.30;37.00;;;;;;5030456;28;20432;-53
2021/06/10 10:58:35;;;;;;;14.97;13.87;;;34.30;37.90;;;;;;5030850;28;20529;-53
2021/06/10 11:01:02;;;;;;;12.33;11.07;;;34.50;37.40;;;;;;5031197;28;20464;-53
2021/06/10 11:03:41;;;;;;;13.43;12.43;;;34.60;36.70;;;;;;5029650;28;20460;-53
2021/06/10 11:06:25;;;;;;;12.70;11.90;;;34.80;36.10;;;;;;5031072;28;20905;-53
2021/06/10 11:09:20;;;;;;;13.00;12.00;;;34.90;35.10;;;;;;5030928;28;20999;-54
2021/06/10 11:12:05;;;;;;;13.43;12.20;;;35.00;35.60;;;;;;5030794;28;20947;-53
2021/06/10 11:14:38;;;;;;;12.67;11.77;;;35.10;35.80;;;;;;5030772;28;20477;-52
2021/06/10 11:17:23;;;;;;;12.40;11.50;;;35.20;36.40;;;;;;5031153;28;20446;-52
2021/06/10 11:19:59;;;;;;;11.47;10.50;;;35.30;35.40;;;;;;5025204;28;20448;-53
2021/06/10 11:22:28;;;;;;;13.10;12.20;;;35.50;36.20;;;;;;5011492;28;20511;-53
2021/06/10 11:24:54;;;;;;;13.37;12.27;;;35.70;35.40;;;;;;5014093;28;20488;-55
2021/06/10 11:27:47;;;;;;;12.63;11.73;;;35.70;34.60;;;;;;5014816;28;20866;-53
2021/06/10 11:30:22;;;;;;;12.60;11.40;;;35.70;34.70;;;;;;5011987;28;20636;-53
2021/06/10 11:33:10;;;;;;;12.73;11.83;;;35.80;35.80;;;;;;5015029;28;20961;-54
2021/06/10 11:35:46;;;;;;;12.63;11.73;;;35.70;34.80;;;;;;5013964;28;20529;-53
2021/06/10 11:38:24;;;;;;;12.50;11.33;;;35.60;35.60;;;;;;5015205;28;20451;-52
2021/06/10 11:40:53;;;;;;;11.73;10.90;;;35.60;35.10;;;;;;5016403;28;20448;-52
2021/06/10 11:43:20;;;;;;;10.50;9.63;;;35.40;35.30;;;;;;5022238;28;20790;-54
2021/06/10 11:45:47;;;;;;;11.90;11.10;;;35.50;36.10;;;;;;5013611;28;20480;-55
2021/06/10 11:48:13;;;;;;;11.63;10.83;;;35.60;34.70;;;;;;5014793;28;20440;-54
2021/06/10 11:50:42;;;;;;;11.90;10.23;;;35.70;34.10;;;;;;5014277;28;20432;-53
2021/06/10 11:53:17;;;;;;;11.90;10.80;;;35.80;33.30;;;;;;5031779;28;20193;-54
2021/06/10 11:55:43;;;;;;;10.50;9.80;;;35.70;32.90;;;;;;5031653;28;20461;-53
2021/06/10 11:58:11;;;;;;;11.43;10.73;;;35.60;33.20;;;;;;5034379;28;20919;-53
2021/06/10 12:00:44;;;;;;;11.43;10.60;;;35.50;33.70;;;;;;5033927;28;20469;-54
2021/06/10 12:03:12;;;;;;;12.03;11.00;;;35.50;33.50;;;;;;5034316;28;20787;-53
2021/06/10 12:05:55;;;;;;;10.57;9.77;;;35.40;32.90;;;;;;5031892;28;21044;-52
2021/06/10 12:08:31;;;;;;;10.23;9.53;;;35.40;34.30;;;;;;5034479;28;20440;-55
2021/06/10 12:11:04;;;;;;;11.60;10.70;;;35.40;36.20;;;;;;5034357;28;20944;-53
2021/06/10 12:13:38;;;;;;;10.77;9.97;;;35.40;35.50;;;;;;5014235;28;20436;-54
2021/06/10 12:16:09;;;;;;;10.10;9.40;;;35.50;34.70;;;;;;5013773;28;20978;-53
2021/06/10 12:18:36;;;;;;;11.40;10.60;;;35.60;34.80;;;;;;5017484;28;20423;-54
2021/06/10 12:21:29;;;;;;;11.00;10.20;;;35.60;34.40;;;;;;5019219;28;20436;-53
2021/06/10 12:23:59;;;;;;;9.87;9.10;;;35.60;34.30;;;;;;5010987;28;20448;-54
2021/06/10 12:26:26;;;;;;;9.87;8.30;;;35.50;35.30;;;;;;5013944;28;20444;-53
2021/06/10 12:28:59;;;;;;;9.00;8.40;;;35.50;35.10;;;;;;5013499;28;20425;-53
2021/06/10 12:31:44;;;;;;;8.70;8.10;;;35.50;33.80;;;;;;5013951;28;20440;-54
2021/06/10 12:34:10;;;;;;;8.50;7.90;;;35.60;33.70;;;;;;5013173;28;20535;-54
2021/06/10 12:36:42;;;;;;;8.50;7.90;;;35.70;35.20;;;;;;5012767;28;20432;-54
2021/06/10 12:39:14;;;;;;;9.00;8.30;;;35.80;33.00;;;;;;5013233;28;20980;-55
2021/06/10 12:41:46;;;;;;;8.70;8.00;;;36.00;31.90;;;;;;5022682;28;20435;-54